createdAt,value
2018-06-19T15:06:17.585Z,1.25
2018-06-19T15:06:53.208Z,3.04
2018-06-19T15:07:28.718Z,8.08
2018-06-19T15:08:07.620Z,4.24
2018-06-19T15:08:42.923Z,2.48
2018-06-19T15:09:18.547Z,1.68
2018-06-19T15:09:53.948Z,3.52
2018-06-19T15:10:29.164Z,2.24
2018-06-19T15:11:04.640Z,2.48
2018-06-19T15:11:39.959Z,3.12
2018-06-19T15:12:15.562Z,5.28
2018-06-19T15:12:50.885Z,6.40
2018-06-19T15:13:26.550Z,8.24
2018-06-19T15:14:01.973Z,4.48
2018-06-19T15:14:37.981Z,3.84
2018-06-19T15:15:13.323Z,5.92
2018-06-19T15:15:48.722Z,7.12
2018-06-19T15:16:23.939Z,5.92
2018-06-19T15:16:59.332Z,4.16
2018-06-19T15:17:34.978Z,5.44
2018-06-19T15:18:10.273Z,3.20
2018-06-19T15:18:45.588Z,7.68
2018-06-19T15:19:21.287Z,3.36
2018-06-19T15:19:56.410Z,3.76
2018-06-19T15:20:31.601Z,4.64
2018-06-19T15:21:06.946Z,3.68
2018-06-19T15:21:42.264Z,2.72
2018-06-19T15:22:17.843Z,4.24
2018-06-19T15:22:53.128Z,2.80
2018-06-19T15:23:28.351Z,4.16
2018-06-19T15:24:03.990Z,6.56
2018-06-19T15:24:39.556Z,5.20
2018-06-19T15:25:14.856Z,3.28
2018-06-19T15:25:50.880Z,4.24
2018-06-19T15:26:26.760Z,4.96
2018-06-19T15:27:02.009Z,4.24
2018-06-19T15:27:37.326Z,3.36
2018-06-19T15:28:12.971Z,2.72
2018-06-19T15:28:48.474Z,2.40
2018-06-19T15:29:24.196Z,2.88
2018-06-19T15:29:59.612Z,4.64
2018-06-19T15:30:35.248Z,1.84
2018-06-19T15:31:10.639Z,4.80
2018-06-19T15:31:46.064Z,4.08
2018-06-19T15:32:22.094Z,3.44
2018-06-19T15:32:57.624Z,1.44
2018-06-19T15:33:33.025Z,3.60
2018-06-19T15:34:08.356Z,4.00
2018-06-19T15:34:45.857Z,3.28
2018-06-19T15:35:21.289Z,4.56
2018-06-19T15:35:56.389Z,7.60
2018-06-19T15:36:31.610Z,6.56
2018-06-19T15:37:06.942Z,2.32
2018-06-19T15:37:42.719Z,8.96
2018-06-19T15:38:18.290Z,3.44
2018-06-19T15:38:53.734Z,3.44
2018-06-19T15:39:29.251Z,3.28
2018-06-19T15:40:04.685Z,6.80
2018-06-19T15:40:40.486Z,9.76
2018-06-19T15:41:15.909Z,7.76
2018-06-19T15:41:52.142Z,9.44
2018-06-19T15:42:27.400Z,9.52
2018-06-19T15:43:02.591Z,4.00
2018-06-19T15:43:38.204Z,3.12
2018-06-19T15:44:13.344Z,7.84
2018-06-19T15:44:48.772Z,7.60
2018-06-19T15:45:24.253Z,5.68
2018-06-19T15:45:59.452Z,3.68
2018-06-19T15:46:34.772Z,6.16
2018-06-19T15:47:10.014Z,6.48
2018-06-19T15:47:45.416Z,2.96
2018-06-19T15:48:20.941Z,4.48
2018-06-19T15:48:56.332Z,1.52
2018-06-19T15:49:31.585Z,2.16
2018-06-19T15:50:06.777Z,3.76
2018-06-19T15:50:43.212Z,1.28
2018-06-19T15:51:18.392Z,0.48
2018-06-19T15:51:53.919Z,3.20
2018-06-19T15:52:29.125Z,4.80
2018-06-19T15:53:04.425Z,4.24
2018-06-19T15:53:39.937Z,5.04
2018-06-19T15:54:15.574Z,3.60
2018-06-19T15:54:50.590Z,6.80
2018-06-19T15:55:25.818Z,5.52
2018-06-19T15:56:01.012Z,6.08
2018-06-19T15:56:36.439Z,6.56
2018-06-19T15:57:11.651Z,3.44
2018-06-19T15:57:47.088Z,3.12
2018-06-19T15:58:22.885Z,2.40
2018-06-19T15:58:58.319Z,4.72
2018-06-19T15:59:33.712Z,4.24
2018-06-19T16:00:09.036Z,4.00
2018-06-19T16:00:48.839Z,4.16
2018-06-19T16:01:24.166Z,3.36
2018-06-19T16:01:59.683Z,2.96
2018-06-19T16:02:35.137Z,3.76
2018-06-19T16:03:10.537Z,1.52
2018-06-19T16:03:45.866Z,0.88
2018-06-19T16:04:21.412Z,1.36
2018-06-19T16:04:56.850Z,0.64
2018-06-19T16:05:32.359Z,0.24
2018-06-19T16:06:10.285Z,1.44
2018-06-19T16:06:45.684Z,0.24
2018-06-19T16:07:21.317Z,0.32
2018-06-19T16:07:56.706Z,0.08
2018-06-19T16:08:31.936Z,3.04
2018-06-19T16:09:07.557Z,1.68
2018-06-19T16:09:43.094Z,0.72
2018-06-19T16:10:18.689Z,1.60
2018-06-19T16:10:54.631Z,0.72
2018-06-19T16:11:30.137Z,0.96
2018-06-19T16:12:07.515Z,1.76
2018-06-19T16:12:42.945Z,1.04
2018-06-19T16:13:18.181Z,0.80
2018-06-19T16:13:53.705Z,2.00
2018-06-19T16:14:29.167Z,1.28
2018-06-19T16:15:04.361Z,1.52
2018-06-19T16:15:39.984Z,2.32
2018-06-19T16:16:15.514Z,1.60
2018-06-19T16:16:50.722Z,0.56
2018-06-19T16:17:26.138Z,1.84
2018-06-19T16:18:01.469Z,1.92
2018-06-19T16:18:36.657Z,1.12
2018-06-19T16:19:12.093Z,0.16
2018-06-19T16:19:47.574Z,1.44
2018-06-19T16:20:23.105Z,0.80
2018-06-19T16:20:59.289Z,2.72
2018-06-19T16:21:34.496Z,1.92
2018-06-19T16:22:09.973Z,1.36
2018-06-19T16:22:45.387Z,1.36
2018-06-19T16:23:21.093Z,2.88
2018-06-19T16:23:56.410Z,2.88
2018-06-19T16:24:31.808Z,2.32
2018-06-19T16:25:07.153Z,1.44
2018-06-19T16:25:42.732Z,0.48
2018-06-19T16:26:17.881Z,4.96
2018-06-19T16:26:53.194Z,7.12
2018-06-19T16:27:28.515Z,2.64
2018-06-19T16:28:03.822Z,2.64
2018-06-19T16:28:39.262Z,1.36
2018-06-19T16:29:14.782Z,2.24
2018-06-19T16:29:50.320Z,2.24
2018-06-19T16:30:25.442Z,6.08
2018-06-19T16:31:00.663Z,1.20
2018-06-19T16:31:35.953Z,3.92
2018-06-19T16:32:11.086Z,0.48
2018-06-19T16:32:46.982Z,0.96
2018-06-19T16:33:22.147Z,0.48
2018-06-19T16:33:57.452Z,2.16
2018-06-19T16:34:32.892Z,0.08
2018-06-19T16:35:08.238Z,0.24
2018-06-19T16:35:44.264Z,3.20
2018-06-19T16:36:19.465Z,1.44
2018-06-19T16:36:55.174Z,1.76
2018-06-19T16:37:30.678Z,1.76
2018-06-19T16:38:06.011Z,1.68
2018-06-19T16:38:41.600Z,2.08
2018-06-19T16:39:16.932Z,0.88
2018-06-19T16:39:52.442Z,1.84
2018-06-19T16:40:27.959Z,1.52
2018-06-19T16:41:03.185Z,1.20
2018-06-19T16:41:38.635Z,1.20
2018-06-19T16:42:14.273Z,0.40
2018-06-19T16:42:49.698Z,3.36
2018-06-19T16:43:24.895Z,1.36
2018-06-19T16:44:00.368Z,1.12
2018-06-19T16:44:35.523Z,1.84
2018-06-19T16:45:11.040Z,4.72
2018-06-19T16:45:46.468Z,4.08
2018-06-19T16:46:22.182Z,2.64
2018-06-19T16:46:57.473Z,2.88
2018-06-19T16:47:32.773Z,2.56
2018-06-19T16:48:08.448Z,2.72
2018-06-19T16:48:43.678Z,3.20
2018-06-19T16:49:19.058Z,4.24
2018-06-19T16:49:54.235Z,2.72
2018-06-19T16:50:29.652Z,1.60
2018-06-19T16:51:05.496Z,1.60
2018-06-19T16:51:40.886Z,0.72
2018-06-19T16:52:16.537Z,1.76
2018-06-19T16:52:52.132Z,1.04
2018-06-19T16:53:27.366Z,2.80
2018-06-19T16:54:02.750Z,3.28
2018-06-19T16:54:38.118Z,0.40
2018-06-19T16:55:13.399Z,1.20
2018-06-19T16:55:52.911Z,2.56
2018-06-19T16:56:28.208Z,0.88
2018-06-19T16:57:03.435Z,3.44
2018-06-19T16:57:38.769Z,3.60
2018-06-19T16:58:14.507Z,4.64
2018-06-19T16:58:50.025Z,0.80
2018-06-19T16:59:25.569Z,1.92
2018-06-19T17:00:00.968Z,3.20
2018-06-19T17:00:36.907Z,4.96
2018-06-19T17:01:12.180Z,0.80
2018-06-19T17:01:47.605Z,1.68
2018-06-19T17:02:23.061Z,1.36
2018-06-19T17:02:58.385Z,1.44
2018-06-19T17:03:33.682Z,2.80
2018-06-19T17:04:09.225Z,2.24
2018-06-19T17:04:45.050Z,1.36
2018-06-19T17:05:20.481Z,0.96
2018-06-19T17:05:55.878Z,4.24
2018-06-19T17:06:31.223Z,3.52
2018-06-19T17:07:08.970Z,1.76
2018-06-19T17:07:44.914Z,2.08
2018-06-19T17:08:20.089Z,3.04
2018-06-19T17:08:55.523Z,2.64
2018-06-19T17:09:30.822Z,2.16
2018-06-19T17:10:06.347Z,2.56
2018-06-19T17:10:42.742Z,2.88
2018-06-19T17:11:17.985Z,2.56
2018-06-19T17:11:53.281Z,3.76
2018-06-19T17:12:28.831Z,3.60
2018-06-19T17:13:04.138Z,5.20
2018-06-19T17:13:39.535Z,2.64
2018-06-19T17:14:14.961Z,2.24
2018-06-19T17:14:50.458Z,3.92
2018-06-19T17:15:25.973Z,2.24
2018-06-19T17:16:01.218Z,2.56
2018-06-19T17:16:36.915Z,4.08
2018-06-19T17:17:12.080Z,3.20
2018-06-19T17:17:47.388Z,4.32
2018-06-19T17:18:22.707Z,2.80
2018-06-19T17:18:58.105Z,0.64
2018-06-19T17:19:33.645Z,1.52
2018-06-19T17:20:09.146Z,0.72
2018-06-19T17:20:47.507Z,2.32
2018-06-19T17:21:22.735Z,2.80
2018-06-19T17:21:58.059Z,5.36
2018-06-19T17:22:33.301Z,2.96
2018-06-19T17:23:08.736Z,2.96
2018-06-19T17:23:44.153Z,2.48
2018-06-19T17:24:19.690Z,4.24
2018-06-19T17:24:55.395Z,2.88
2018-06-19T17:25:30.623Z,5.28
2018-06-19T17:26:06.149Z,3.36
2018-06-19T17:26:41.872Z,4.48
2018-06-19T17:27:17.416Z,2.80
2018-06-19T17:27:53.060Z,3.84
2018-06-19T17:28:28.475Z,4.08
2018-06-19T17:29:03.723Z,3.52
2018-06-19T17:29:40.348Z,2.56
2018-06-19T17:30:15.686Z,5.92
2018-06-19T17:30:52.421Z,6.24
2018-06-19T17:31:27.905Z,5.20
2018-06-19T17:32:03.319Z,4.32
2018-06-19T17:32:38.983Z,3.12
2018-06-19T17:33:14.100Z,2.88
2018-06-19T17:33:49.527Z,2.48
2018-06-19T17:34:24.960Z,2.00
2018-06-19T17:35:00.419Z,3.84
2018-06-19T17:35:35.738Z,6.88
2018-06-19T17:36:11.392Z,3.28
2018-06-19T17:36:46.397Z,3.84
2018-06-19T17:37:22.149Z,2.88
2018-06-19T17:37:57.478Z,3.84
2018-06-19T17:38:33.028Z,4.08
2018-06-19T17:39:10.170Z,2.64
2018-06-19T17:39:49.218Z,0.16
2018-06-19T17:40:26.928Z,2.24
2018-06-19T17:41:05.279Z,2.24
2018-06-19T17:41:40.616Z,0.96
2018-06-19T17:42:16.150Z,0.96
2018-06-19T17:42:51.373Z,2.32
2018-06-19T17:43:26.708Z,2.56
2018-06-19T17:44:02.010Z,0.40
2018-06-19T17:44:37.425Z,2.96
2018-06-19T17:45:12.862Z,4.16
2018-06-19T17:45:48.501Z,2.72
2018-06-19T17:46:24.110Z,6.40
2018-06-19T17:46:59.494Z,5.28
2018-06-19T17:47:34.843Z,3.28
2018-06-19T17:48:10.383Z,3.76
2018-06-19T17:48:46.421Z,2.96
2018-06-19T17:49:22.192Z,1.52
2018-06-19T17:49:59.189Z,1.36
2018-06-19T17:50:34.823Z,1.68
2018-06-19T17:51:11.865Z,1.52
2018-06-19T17:51:49.601Z,1.60
2018-06-19T17:52:25.362Z,3.44
2018-06-19T17:53:02.888Z,2.40
2018-06-19T17:53:38.610Z,3.36
2018-06-19T17:54:13.958Z,1.60
2018-06-19T17:54:49.284Z,2.16
2018-06-19T17:55:24.890Z,2.08
2018-06-19T17:56:00.615Z,2.64
2018-06-19T17:56:37.851Z,3.04
2018-06-19T17:57:13.785Z,2.88
2018-06-19T17:57:51.672Z,3.28
2018-06-19T17:58:27.081Z,5.20
2018-06-19T17:59:02.574Z,1.28
2018-06-19T17:59:38.890Z,0.00
2018-06-19T18:00:14.348Z,2.32
2018-06-19T18:00:55.453Z,1.68
2018-06-19T18:01:30.812Z,2.80
2018-06-19T18:02:06.898Z,3.92
2018-06-19T18:02:42.316Z,1.20
2018-06-19T18:03:17.635Z,1.12
2018-06-19T18:03:53.301Z,1.60
2018-06-19T18:04:28.928Z,2.00
2018-06-19T18:05:04.625Z,1.20
2018-06-19T18:05:43.188Z,3.60
2018-06-19T18:06:19.428Z,1.20
2018-06-19T18:06:56.224Z,0.64
2018-06-19T18:07:31.785Z,0.32
2018-06-19T18:08:07.089Z,0.96
2018-06-19T18:08:42.661Z,0.96
2018-06-19T18:09:20.549Z,0.00
2018-06-19T18:09:55.735Z,0.32
2018-06-19T18:10:31.153Z,0.72
2018-06-19T18:11:08.306Z,2.32
2018-06-19T18:11:43.545Z,0.24
2018-06-19T18:12:19.108Z,0.00
2018-06-19T18:12:54.824Z,0.24
2018-06-19T18:13:30.048Z,1.52
2018-06-19T18:14:05.260Z,2.08
2018-06-19T18:14:40.603Z,0.64
2018-06-19T18:15:16.936Z,0.00
2018-06-19T18:15:52.249Z,0.00
2018-06-19T18:16:27.735Z,1.44
2018-06-19T18:17:03.933Z,0.48
2018-06-19T18:17:43.964Z,0.08
2018-06-19T18:18:19.411Z,0.80
2018-06-19T18:18:55.233Z,0.08
2018-06-19T18:19:30.277Z,0.24
2018-06-19T18:20:05.905Z,0.16
2018-06-19T18:20:41.845Z,0.40
2018-06-19T18:21:17.285Z,0.48
2018-06-19T18:21:52.595Z,0.40
2018-06-19T18:22:27.954Z,0.48
2018-06-19T18:23:03.377Z,1.20
2018-06-19T18:23:39.001Z,0.88
2018-06-19T18:24:14.533Z,0.32
2018-06-19T18:24:52.250Z,1.04
2018-06-19T18:25:27.882Z,0.32
2018-06-19T18:26:08.700Z,0.72
2018-06-19T18:26:47.034Z,0.00
2018-06-19T18:27:23.335Z,0.24
2018-06-19T18:28:02.052Z,0.16
2018-06-19T18:28:37.701Z,0.88
2018-06-19T18:29:13.077Z,0.00
2018-06-19T18:29:48.581Z,0.48
2018-06-19T18:30:23.908Z,0.16
2018-06-19T18:30:59.246Z,0.00
2018-06-19T18:31:34.615Z,1.20
2018-06-19T18:32:10.092Z,1.52
2018-06-19T18:32:45.704Z,1.28
2018-06-19T18:33:21.346Z,1.28
2018-06-19T18:33:58.017Z,1.36
2018-06-19T18:34:33.386Z,0.16
2018-06-19T18:35:08.847Z,0.64
2018-06-19T18:35:44.880Z,0.00
2018-06-19T18:36:20.520Z,0.00
2018-06-19T18:36:55.762Z,0.00
2018-06-19T18:37:31.129Z,0.80
2018-06-19T18:38:06.566Z,0.00
2018-06-19T18:38:42.097Z,0.00
2018-06-19T18:39:17.539Z,0.88
2018-06-19T18:39:53.142Z,0.08
2018-06-19T18:40:28.457Z,1.52
2018-06-19T18:41:07.409Z,1.92
2018-06-19T18:41:45.902Z,1.28
2018-06-19T18:42:21.383Z,1.60
2018-06-19T18:42:56.897Z,0.96
2018-06-19T18:43:32.316Z,3.76
2018-06-19T18:44:08.473Z,3.12
2018-06-19T18:44:43.964Z,1.36
2018-06-19T18:45:20.397Z,1.52
2018-06-19T18:45:58.921Z,2.24
2018-06-19T18:46:34.229Z,0.40
2018-06-19T18:47:09.517Z,0.48
2018-06-19T18:47:44.739Z,0.96
2018-06-19T18:48:20.277Z,2.32
2018-06-19T18:48:55.817Z,2.88
2018-06-19T18:49:31.368Z,3.60
2018-06-19T18:50:06.718Z,0.56
2018-06-19T18:50:42.758Z,1.84
2018-06-19T18:51:20.977Z,3.20
2018-06-19T18:51:56.187Z,1.76
2018-06-19T18:52:31.967Z,1.52
2018-06-19T18:53:07.172Z,1.52
2018-06-19T18:53:42.395Z,3.20
2018-06-19T18:54:20.950Z,2.40
2018-06-19T18:54:59.764Z,1.44
2018-06-19T18:55:35.215Z,2.08
2018-06-19T18:56:10.459Z,1.28
2018-06-19T18:56:47.595Z,0.64
2018-06-19T18:57:23.173Z,0.08
2018-06-19T18:58:03.181Z,0.08
2018-06-19T18:58:41.627Z,0.08
2018-06-19T18:59:19.266Z,1.44
2018-06-19T18:59:54.558Z,0.64
2018-06-19T19:00:29.997Z,0.32
2018-06-19T19:01:05.212Z,2.88
2018-06-19T19:01:40.419Z,4.96
2018-06-19T19:02:15.796Z,2.96
2018-06-19T19:02:51.340Z,2.88
2018-06-19T19:03:26.968Z,3.44
2018-06-19T19:04:02.245Z,3.20
2018-06-19T19:04:37.799Z,3.52
2018-06-19T19:05:12.906Z,3.20
2018-06-19T19:05:48.136Z,2.56
2018-06-19T19:06:25.060Z,1.36
2018-06-19T19:07:00.576Z,2.08
2018-06-19T19:07:36.030Z,0.48
2018-06-19T19:08:11.236Z,0.08
2018-06-19T19:08:46.580Z,0.00
2018-06-19T19:09:22.086Z,0.96
2018-06-19T19:09:57.432Z,0.00
2018-06-19T19:10:32.729Z,0.08
2018-06-19T19:11:08.283Z,0.08
2018-06-19T19:11:43.922Z,0.40
2018-06-19T19:12:19.282Z,1.20
2018-06-19T19:12:54.835Z,0.08
2018-06-19T19:13:30.869Z,1.52
2018-06-19T19:14:06.290Z,1.36
2018-06-19T19:14:42.941Z,2.00
2018-06-19T19:15:18.455Z,0.32
2018-06-19T19:15:54.187Z,3.92
2018-06-19T19:16:30.491Z,3.04
2018-06-19T19:17:05.831Z,0.88
2018-06-19T19:17:41.301Z,1.36
2018-06-19T19:18:16.898Z,0.48
2018-06-19T19:18:52.324Z,1.04
2018-06-19T19:19:27.851Z,2.72
2018-06-19T19:20:03.407Z,1.76
2018-06-19T19:20:39.459Z,1.68
2018-06-19T19:21:14.497Z,1.52
2018-06-19T19:21:50.072Z,1.20
2018-06-19T19:22:25.541Z,1.44
2018-06-19T19:23:00.892Z,0.88
2018-06-19T19:23:36.319Z,0.08
2018-06-19T19:24:11.746Z,0.08
2018-06-19T19:24:46.982Z,0.00
2018-06-19T19:25:22.402Z,1.28
2018-06-19T19:25:57.949Z,0.96
2018-06-19T19:26:33.969Z,0.32
2018-06-19T19:27:09.212Z,1.68
2018-06-19T19:27:44.369Z,1.28
2018-06-19T19:28:19.807Z,0.48
2018-06-19T19:28:55.353Z,0.08
2018-06-19T19:29:30.668Z,1.52
2018-06-19T19:30:06.016Z,2.40
2018-06-19T19:30:42.442Z,4.08
2018-06-19T19:31:17.980Z,4.80
2018-06-19T19:31:53.290Z,3.60
2018-06-19T19:32:28.658Z,3.36
2018-06-19T19:33:03.902Z,1.44
2018-06-19T19:33:39.461Z,1.52
2018-06-19T19:34:15.386Z,2.40
2018-06-19T19:34:50.848Z,2.88
2018-06-19T19:35:26.104Z,3.28
2018-06-19T19:36:01.421Z,1.84
2018-06-19T19:36:36.618Z,1.28
2018-06-19T19:37:12.049Z,3.92
2018-06-19T19:37:47.352Z,3.04
2018-06-19T19:38:23.083Z,3.44
2018-06-19T19:38:58.727Z,3.20
2018-06-19T19:39:34.351Z,2.48
2018-06-19T19:40:09.664Z,2.16
2018-06-19T19:40:45.074Z,2.16
2018-06-19T19:41:20.336Z,1.84
2018-06-19T19:41:55.562Z,1.76
2018-06-19T19:42:31.012Z,1.12
2018-06-19T19:43:06.316Z,1.28
2018-06-19T19:43:41.613Z,1.84
2018-06-19T19:44:16.832Z,1.84
2018-06-19T19:44:52.405Z,1.92
2018-06-19T19:45:27.719Z,2.08
2018-06-19T19:46:03.457Z,1.12
2018-06-19T19:46:38.885Z,1.44
2018-06-19T19:47:14.522Z,1.12
2018-06-19T19:47:49.919Z,0.00
2018-06-19T19:48:25.063Z,0.00
2018-06-19T19:49:00.419Z,0.00
2018-06-19T19:49:37.135Z,0.00
2018-06-19T19:50:12.448Z,0.00
2018-06-19T19:50:48.318Z,0.64
2018-06-19T19:51:23.652Z,0.00
2018-06-19T19:51:59.678Z,1.68
2018-06-19T19:52:35.015Z,0.80
2018-06-19T19:53:10.168Z,0.96
2018-06-19T19:53:45.790Z,1.04
2018-06-19T19:54:20.987Z,2.24
2018-06-19T19:54:56.144Z,1.20
2018-06-19T19:55:31.722Z,1.76
2018-06-19T19:56:07.026Z,0.48
2018-06-19T19:56:42.549Z,0.00
2018-06-19T19:57:18.216Z,0.00
2018-06-19T19:57:53.560Z,0.00
2018-06-19T19:58:28.935Z,0.00
2018-06-19T19:59:04.667Z,0.00
2018-06-19T19:59:40.237Z,0.00
2018-06-19T20:00:15.548Z,0.00
2018-06-19T20:00:51.560Z,0.00
2018-06-19T20:01:27.316Z,0.00
2018-06-19T20:02:02.741Z,0.00
2018-06-19T20:02:38.114Z,0.00
2018-06-19T20:03:13.281Z,0.00
2018-06-19T20:03:48.576Z,0.00
2018-06-19T20:04:23.834Z,0.00
2018-06-19T20:05:03.467Z,0.00
2018-06-19T20:05:39.451Z,0.00
2018-06-19T20:06:15.325Z,0.08
2018-06-19T20:06:50.640Z,0.00
2018-06-19T20:07:26.226Z,0.00
2018-06-19T20:08:01.864Z,0.00
2018-06-19T20:08:37.424Z,0.00
2018-06-19T20:09:12.988Z,0.00
2018-06-19T20:09:48.421Z,0.00
2018-06-19T20:10:24.172Z,0.00
2018-06-19T20:11:00.111Z,0.00
2018-06-19T20:11:35.737Z,0.00
2018-06-19T20:12:11.632Z,0.00
2018-06-19T20:12:47.033Z,0.00
2018-06-19T20:13:22.322Z,0.00
2018-06-19T20:13:58.268Z,0.00
2018-06-19T20:14:33.899Z,0.00
2018-06-19T20:15:09.325Z,0.00
2018-06-19T20:15:44.849Z,0.00
2018-06-19T20:16:20.464Z,0.00
2018-06-19T20:16:55.571Z,0.00
2018-06-19T20:17:31.149Z,0.00
2018-06-19T20:18:06.420Z,0.00
2018-06-19T20:18:42.015Z,2.16
2018-06-19T20:19:17.262Z,0.08
2018-06-19T20:19:52.451Z,0.00
2018-06-19T20:20:27.569Z,0.16
2018-06-19T20:21:02.874Z,0.00
2018-06-19T20:21:39.101Z,1.12
2018-06-19T20:22:14.705Z,1.28
2018-06-19T20:22:49.997Z,0.00
2018-06-19T20:23:25.538Z,0.32
2018-06-19T20:24:00.858Z,0.88
2018-06-19T20:24:36.409Z,0.16
2018-06-19T20:25:11.935Z,0.00
2018-06-19T20:25:47.250Z,0.00
2018-06-19T20:26:22.575Z,0.00
2018-06-19T20:26:57.867Z,0.40
2018-06-19T20:27:33.413Z,0.00
2018-06-19T20:28:08.962Z,0.00
2018-06-19T20:28:44.290Z,0.00
2018-06-19T20:29:19.717Z,0.00
2018-06-19T20:29:54.936Z,0.08
2018-06-19T20:30:30.369Z,0.00
2018-06-19T20:31:05.828Z,0.00
2018-06-19T20:31:41.271Z,0.00
2018-06-19T20:32:16.902Z,0.00
2018-06-19T20:32:52.323Z,0.08
2018-06-19T20:33:27.764Z,0.32
2018-06-19T20:34:03.173Z,0.24
2018-06-19T20:34:38.518Z,0.00
2018-06-19T20:35:14.039Z,0.00
2018-06-19T20:35:49.569Z,0.00
2018-06-19T20:36:24.894Z,0.00
2018-06-19T20:36:59.877Z,1.04
2018-06-19T20:37:35.772Z,0.48
2018-06-19T20:38:11.089Z,0.00
2018-06-19T20:38:46.322Z,0.00
2018-06-19T20:39:21.838Z,0.00
2018-06-19T20:39:59.741Z,0.00
2018-06-19T20:40:35.373Z,0.00
2018-06-19T20:41:10.900Z,0.00
2018-06-19T20:41:47.941Z,0.00
2018-06-19T20:42:23.303Z,0.00
2018-06-19T20:42:58.695Z,0.00
2018-06-19T20:43:34.277Z,0.00
2018-06-19T20:44:11.617Z,0.00
2018-06-19T20:44:46.964Z,0.00
2018-06-19T20:45:22.214Z,0.16
2018-06-19T20:45:57.447Z,0.24
2018-06-19T20:46:35.722Z,0.24
2018-06-19T20:47:11.440Z,0.00
2018-06-19T20:47:47.767Z,0.00
2018-06-19T20:48:23.071Z,0.00
2018-06-19T20:48:58.395Z,0.00
2018-06-19T20:49:33.415Z,0.00
2018-06-19T20:50:09.223Z,0.00
2018-06-19T20:50:44.567Z,0.00
2018-06-19T20:51:20.081Z,0.00
2018-06-19T20:51:55.743Z,0.00
2018-06-19T20:52:31.283Z,0.00
2018-06-19T20:53:06.583Z,0.00
2018-06-19T20:53:41.927Z,0.00
2018-06-19T20:54:17.161Z,0.00
2018-06-19T20:54:52.384Z,0.00
2018-06-19T20:55:27.712Z,0.00
2018-06-19T20:56:03.113Z,0.00
2018-06-19T20:56:38.149Z,0.00
2018-06-19T20:57:13.387Z,0.00
2018-06-19T20:57:50.036Z,0.00
2018-06-19T20:58:25.483Z,0.00
2018-06-19T20:59:00.612Z,0.00
2018-06-19T20:59:36.023Z,0.40
2018-06-19T21:00:11.339Z,0.64
2018-06-19T21:00:46.913Z,0.08
2018-06-19T21:01:22.373Z,0.00
2018-06-19T21:01:57.704Z,0.00
2018-06-19T21:02:32.849Z,0.00
2018-06-19T21:03:08.158Z,0.00
2018-06-19T21:03:43.711Z,0.00
2018-06-19T21:04:19.084Z,0.00
2018-06-19T21:04:54.438Z,0.00
2018-06-19T21:05:30.099Z,0.00
2018-06-19T21:06:05.593Z,0.00
2018-06-19T21:06:40.919Z,0.00
2018-06-19T21:07:16.161Z,0.00
2018-06-19T21:07:51.400Z,0.00
2018-06-19T21:08:26.663Z,0.00
2018-06-19T21:09:01.854Z,0.00
2018-06-19T21:09:37.284Z,0.00
2018-06-19T21:10:12.315Z,0.00
2018-06-19T21:10:48.146Z,0.00
2018-06-19T21:11:23.370Z,0.00
2018-06-19T21:11:58.717Z,0.40
2018-06-19T21:12:34.289Z,0.72
2018-06-19T21:13:09.691Z,0.08
2018-06-19T21:13:45.012Z,0.00
2018-06-19T21:14:20.620Z,0.88
2018-06-19T21:14:55.968Z,3.44
2018-06-19T21:15:31.556Z,3.04
2018-06-19T21:16:06.736Z,3.28
2018-06-19T21:16:42.151Z,2.16
2018-06-19T21:17:17.776Z,1.52
2018-06-19T21:17:52.910Z,2.40
2018-06-19T21:18:27.913Z,2.56
2018-06-19T21:19:03.313Z,2.80
2018-06-19T21:19:38.640Z,2.16
2018-06-19T21:20:14.053Z,1.04
2018-06-19T21:20:49.308Z,2.32
2018-06-19T21:21:24.631Z,2.08
2018-06-19T21:21:59.937Z,1.60
2018-06-19T21:22:34.980Z,1.28
2018-06-19T21:23:10.426Z,3.36
2018-06-19T21:23:46.033Z,1.84
2018-06-19T21:24:21.256Z,2.48
2018-06-19T21:24:56.787Z,1.60
2018-06-19T21:25:31.941Z,1.60
2018-06-19T21:26:07.060Z,0.64
2018-06-19T21:26:42.499Z,1.60
2018-06-19T21:27:17.971Z,1.76
2018-06-19T21:27:53.190Z,0.80
2018-06-19T21:28:28.957Z,2.72
2018-06-19T21:29:06.985Z,1.12
2018-06-19T21:29:42.510Z,0.56
2018-06-19T21:30:17.854Z,1.28
2018-06-19T21:30:53.396Z,0.16
2018-06-19T21:31:28.724Z,0.96
2018-06-19T21:32:04.008Z,2.56
2018-06-19T21:32:39.083Z,2.40
2018-06-19T21:33:14.502Z,1.36
2018-06-19T21:33:49.836Z,0.56
2018-06-19T21:34:25.323Z,1.04
2018-06-19T21:35:01.038Z,0.00
2018-06-19T21:35:36.265Z,1.20
2018-06-19T21:36:11.695Z,1.36
2018-06-19T21:36:46.927Z,1.44
2018-06-19T21:37:22.446Z,0.48
2018-06-19T21:37:58.284Z,0.56
2018-06-19T21:38:33.593Z,1.20
2018-06-19T21:39:08.939Z,0.08
2018-06-19T21:39:44.367Z,0.00
2018-06-19T21:40:20.114Z,0.00
2018-06-19T21:40:57.571Z,0.00
2018-06-19T21:41:33.023Z,0.00
2018-06-19T21:42:08.610Z,0.00
2018-06-19T21:42:43.943Z,0.00
2018-06-19T21:43:19.849Z,0.40
2018-06-19T21:43:55.226Z,1.04
2018-06-19T21:44:30.629Z,1.12
2018-06-19T21:45:05.880Z,0.00
2018-06-19T21:45:46.856Z,0.08
2018-06-19T21:46:22.288Z,0.00
2018-06-19T21:46:57.744Z,0.24
2018-06-19T21:47:33.084Z,1.44
2018-06-19T21:48:08.231Z,0.72
2018-06-19T21:48:43.771Z,0.16
2018-06-19T21:49:19.297Z,0.00
2018-06-19T21:49:54.639Z,0.32
2018-06-19T21:50:30.137Z,1.52
2018-06-19T21:51:05.363Z,0.96
2018-06-19T21:51:40.779Z,2.40
2018-06-19T21:52:16.465Z,1.12
2018-06-19T21:52:51.713Z,0.96
2018-06-19T21:53:26.947Z,0.24
2018-06-19T21:54:02.288Z,0.00
2018-06-19T21:54:37.792Z,0.48
2018-06-19T21:55:12.941Z,1.36
2018-06-19T21:55:48.896Z,0.64
2018-06-19T21:56:24.239Z,1.36
2018-06-19T21:57:00.055Z,0.48
2018-06-19T21:57:35.473Z,1.20
2018-06-19T21:58:11.025Z,1.68
2018-06-19T21:58:46.267Z,2.48
2018-06-19T21:59:21.785Z,2.00
2018-06-19T21:59:57.001Z,0.32
2018-06-19T22:00:32.321Z,0.48
2018-06-19T22:01:07.664Z,0.00
2018-06-19T22:01:43.079Z,0.00
2018-06-19T22:02:18.359Z,0.00
2018-06-19T22:02:53.587Z,0.00
2018-06-19T22:03:29.103Z,0.00
2018-06-19T22:04:04.658Z,0.00
2018-06-19T22:04:39.947Z,0.00
2018-06-19T22:05:15.823Z,0.00
2018-06-19T22:05:51.092Z,0.00
2018-06-19T22:06:26.524Z,1.12
2018-06-19T22:07:01.963Z,2.00
2018-06-19T22:07:37.091Z,1.04
2018-06-19T22:08:12.641Z,0.16
2018-06-19T22:08:48.089Z,0.00
2018-06-19T22:09:23.391Z,0.00
2018-06-19T22:09:58.864Z,0.00
2018-06-19T22:10:34.184Z,0.24
2018-06-19T22:11:09.206Z,1.12
2018-06-19T22:11:44.660Z,0.80
2018-06-19T22:12:20.340Z,0.88
2018-06-19T22:12:55.805Z,1.76
2018-06-19T22:13:31.217Z,1.44
2018-06-19T22:14:06.559Z,0.16
2018-06-19T22:14:41.701Z,0.00
2018-06-19T22:15:16.955Z,0.00
2018-06-19T22:15:52.580Z,0.32
2018-06-19T22:16:28.394Z,1.36
2018-06-19T22:17:04.052Z,0.48
2018-06-19T22:17:39.378Z,1.12
2018-06-19T22:18:15.114Z,1.20
2018-06-19T22:18:50.841Z,1.04
2018-06-19T22:19:26.470Z,1.68
2018-06-19T22:20:01.690Z,0.08
2018-06-19T22:20:36.786Z,1.36
2018-06-19T22:21:12.130Z,1.20
2018-06-19T22:21:47.464Z,0.80
2018-06-19T22:22:23.254Z,1.52
2018-06-19T22:22:58.675Z,0.48
2018-06-19T22:23:34.178Z,2.32
2018-06-19T22:24:09.708Z,2.80
2018-06-19T22:24:45.055Z,2.64
2018-06-19T22:25:20.761Z,2.00
2018-06-19T22:25:56.172Z,1.44
2018-06-19T22:26:33.377Z,1.44
2018-06-19T22:27:08.740Z,0.72
2018-06-19T22:27:44.047Z,0.00
2018-06-19T22:28:19.380Z,0.00
2018-06-19T22:28:54.671Z,0.00
2018-06-19T22:29:30.284Z,0.00
2018-06-19T22:30:05.832Z,0.00
2018-06-19T22:30:41.154Z,0.80
2018-06-19T22:31:16.370Z,0.00
2018-06-19T22:31:51.584Z,1.52
2018-06-19T22:32:27.439Z,0.56
2018-06-19T22:33:02.671Z,0.88
2018-06-19T22:33:38.203Z,0.24
2018-06-19T22:34:13.539Z,0.00
2018-06-19T22:34:48.841Z,0.00
2018-06-19T22:35:24.188Z,0.00
2018-06-19T22:35:59.598Z,0.00
2018-06-19T22:36:34.735Z,0.00
2018-06-19T22:37:10.175Z,0.00
2018-06-19T22:37:45.375Z,0.00
2018-06-19T22:38:21.702Z,0.00
2018-06-19T22:38:57.349Z,0.08
2018-06-19T22:39:32.720Z,0.00
2018-06-19T22:40:07.800Z,0.00
2018-06-19T22:40:43.239Z,0.00
2018-06-19T22:41:18.535Z,0.72
2018-06-19T22:41:53.986Z,0.24
2018-06-19T22:42:29.422Z,0.16
2018-06-19T22:43:04.784Z,0.56
2018-06-19T22:43:40.499Z,0.96
2018-06-19T22:44:15.751Z,1.04
2018-06-19T22:44:51.363Z,0.08
2018-06-19T22:45:26.600Z,0.00
2018-06-19T22:46:01.698Z,0.00
2018-06-19T22:46:37.126Z,0.00
2018-06-19T22:47:12.157Z,0.00
2018-06-19T22:47:47.397Z,0.00
2018-06-19T22:48:22.829Z,0.00
2018-06-19T22:48:58.267Z,0.00
2018-06-19T22:49:33.479Z,0.00
2018-06-19T22:50:08.999Z,0.00
2018-06-19T22:50:44.792Z,0.08
2018-06-19T22:51:20.342Z,0.96
2018-06-19T22:51:55.766Z,0.40
2018-06-19T22:52:30.936Z,0.00
2018-06-19T22:53:06.455Z,1.20
2018-06-19T22:53:41.801Z,1.36
2018-06-19T22:54:17.424Z,0.80
2018-06-19T22:54:52.852Z,0.16
2018-06-19T22:55:28.145Z,0.00
2018-06-19T22:56:03.667Z,0.00
2018-06-19T22:56:39.872Z,0.00
2018-06-19T22:57:15.138Z,0.00
2018-06-19T22:57:50.616Z,0.00
2018-06-19T22:58:25.930Z,0.40
2018-06-19T22:59:01.347Z,1.12
2018-06-19T22:59:37.173Z,0.08
2018-06-19T23:00:12.689Z,0.00